This is the latest recevied weather packets stored in our database for station/object HB9SZU-6. If no packets are shown the sender has not sent any weather packets the latest 1 day(s).
| Time | Temp. | Humidity | Pressure | Rain* | Wind** | Luminosity | Snow |
|---|---|---|---|---|---|---|---|
| 1778096573 | 12.78° C | 80% | 1016.3 hPa | 0.25 mm | - | - | - |
| 1778093873 | 12.78° C | 79% | 1015.4 hPa | 0 mm | - | - | - |
| 1778092973 | 13.33° C | 79% | 1015 hPa | 0 mm | - | - | - |
| 1778092073 | 13.33° C | 79% | 1014.7 hPa | 0 mm | - | - | - |
| 1778091173 | 13.33° C | 78% | 1014.3 hPa | 0 mm | - | - | - |
| 1778089373 | 13.89° C | 79% | 1014.2 hPa | 0 mm | - | - | - |
| 1778084873 | 14.44° C | 81% | 1013.7 hPa | 0 mm | - | - | - |
| 1778083072 | 13.89° C | 81% | 1014.1 hPa | 0 mm | - | - | - |
| 1778082173 | 13.89° C | 81% | 1014 hPa | 0 mm | - | - | - |
| 1778075872 | 11.67° C | 80% | 1015 hPa | 1.52 mm | - | - | - |
| 1778070791 | 13.33° C | 80% | 1014.2 hPa | 0.25 mm | - | - | - |
| 1778068991 | 15° C | 79% | 1012.6 hPa | 0 mm | - | - | - |
| 1778067190 | 14.44° C | 80% | 1012.8 hPa | 0 mm | - | - | - |
| 1778065391 | 13.89° C | 80% | 1013.4 hPa | 0 mm | - | - | - |
| 1778062691 | 13.33° C | 81% | 1013.5 hPa | 0 mm | - | - | - |
| 1778061791 | 13.33° C | 81% | 1013 hPa | 0 mm | - | - | - |
| 1778059991 | 13.89° C | 81% | 1013.1 hPa | 0 mm | - | - | - |
| 1778055491 | 12.78° C | 81% | 1013.3 hPa | 0 mm | - | - | - |
| 1778054590 | 12.78° C | 81% | 1013.4 hPa | 0 mm | - | - | - |
| 1778053691 | 12.78° C | 81% | 1013.6 hPa | 0 mm | - | - | - |
| 1778050091 | 12.22° C | 81% | 1013.9 hPa | 0 mm | - | - | - |
| 1778046491 | 12.78° C | 81% | 1014 hPa | 0 mm | - | - | - |
| 1778045591 | 12.78° C | 81% | 1014 hPa | 0 mm | - | - | - |
| 1778043791 | 12.22° C | 81% | 1014.7 hPa | 0 mm | - | - | - |
| 1778041091 | 12.78° C | 81% | 1014.8 hPa | 0.76 mm | - | - | - |
* Rain latest hour (hover to see other rain measurements)
** Current wind speed in m/s (hover to see current wind gust speed)